Time;durP1;ratioP1;P1;durP2;ratioP2;P2;SDS_P1;SDS_P2;PMS_P1;PMS_P2;Temp;Humidity;BMP_temperature;BMP_pressure;BME280_temperature;BME280_humidity;BME280_pressure;Samples;Min_cycle;Max_cycle;Signal;HPM_P1;HPM_P2
2023/06/06 00:01:29;;;;;;;3.73;3.40;;;14.20;99.90;;;;;;5039912;28;20200;-50
2023/06/06 00:03:56;;;;;;;5.10;3.40;;;14.20;99.90;;;;;;5046497;28;20211;-51
2023/06/06 00:06:24;;;;;;;3.63;3.30;;;14.10;99.90;;;;;;5043847;28;20616;-52
2023/06/06 00:08:52;;;;;;;6.43;3.30;;;13.90;99.90;;;;;;5044331;28;20203;-50
2023/06/06 00:11:21;;;;;;;3.53;3.27;;;13.90;99.90;;;;;;5016551;28;20207;-54
2023/06/06 00:13:50;;;;;;;6.27;3.67;;;13.80;99.90;;;;;;5033802;28;20195;-52
2023/06/06 00:16:17;;;;;;;3.57;3.27;;;13.90;99.90;;;;;;5044608;28;20689;-54
2023/06/06 00:19:06;;;;;;;4.63;3.20;;;14.00;99.90;;;;;;5044601;28;20206;-52
2023/06/06 00:21:36;;;;;;;3.93;3.03;;;14.00;99.90;;;;;;5042528;28;20193;-53
2023/06/06 00:24:03;;;;;;;4.30;3.27;;;14.00;99.90;;;;;;5033966;28;20720;-51
2023/06/06 00:26:30;;;;;;;4.53;3.73;;;14.00;99.90;;;;;;5010660;28;20220;-55
2023/06/06 00:28:58;;;;;;;5.63;3.80;;;14.00;99.90;;;;;;5039355;28;20204;-51
2023/06/06 00:31:25;;;;;;;4.37;3.20;;;13.90;99.90;;;;;;5038901;28;20199;-52
2023/06/06 00:33:52;;;;;;;3.90;3.47;;;13.90;99.90;;;;;;5043990;28;20203;-54
2023/06/06 00:36:19;;;;;;;3.30;3.00;;;13.90;99.90;;;;;;5042015;28;20230;-54
2023/06/06 00:38:47;;;;;;;4.10;3.20;;;13.90;99.90;;;;;;5033431;28;20283;-53
2023/06/06 00:41:15;;;;;;;4.30;3.73;;;13.80;99.90;;;;;;5013076;28;20204;-51
2023/06/06 00:43:42;;;;;;;4.70;3.30;;;13.80;99.90;;;;;;5029489;28;20219;-55
2023/06/06 00:46:10;;;;;;;4.03;3.63;;;13.80;99.90;;;;;;5030749;28;20191;-51
2023/06/06 00:48:37;;;;;;;4.43;3.50;;;13.70;99.90;;;;;;5039105;28;20202;-55
2023/06/06 00:51:08;;;;;;;3.90;3.30;;;13.70;99.90;;;;;;5022813;28;20702;-48
2023/06/06 00:53:35;;;;;;;4.83;3.00;;;13.70;99.90;;;;;;5029674;28;20186;-54
2023/06/06 00:56:03;;;;;;;3.37;3.07;;;13.60;99.90;;;;;;5038545;28;20210;-53
2023/06/06 00:58:31;;;;;;;3.70;3.40;;;13.60;99.90;;;;;;5012907;28;20203;-55
2023/06/06 01:00:58;;;;;;;4.00;3.47;;;13.60;99.90;;;;;;5039497;28;20198;-53
2023/06/06 01:03:27;;;;;;;3.33;3.03;;;13.60;99.90;;;;;;5042034;28;20654;-51
2023/06/06 01:05:55;;;;;;;4.77;3.60;;;13.50;99.90;;;;;;5035910;28;20203;-52
2023/06/06 01:08:22;;;;;;;3.73;3.37;;;13.50;99.90;;;;;;5032744;28;20204;-54
2023/06/06 01:11:00;;;;;;;4.07;3.27;;;13.50;99.90;;;;;;5033804;28;20196;-55
2023/06/06 01:13:38;;;;;;;4.23;3.17;;;13.50;99.90;;;;;;5011635;28;20970;-55
2023/06/06 01:16:10;;;;;;;4.90;3.50;;;13.40;99.90;;;;;;5042742;28;20203;-54
2023/06/06 01:18:40;;;;;;;4.00;3.60;;;13.40;99.90;;;;;;5037587;28;20187;-54
2023/06/06 01:21:07;;;;;;;4.17;3.77;;;13.40;99.90;;;;;;5031929;28;20199;-54
2023/06/06 01:23:36;;;;;;;4.57;3.53;;;13.30;99.90;;;;;;5040807;28;20197;-53
2023/06/06 01:26:05;;;;;;;4.33;3.67;;;13.30;99.90;;;;;;5044741;28;20219;-52
2023/06/06 01:28:32;;;;;;;6.10;4.10;;;13.20;99.90;;;;;;5015145;28;20282;-55
2023/06/06 01:30:59;;;;;;;4.97;3.53;;;13.20;99.90;;;;;;5029291;28;20207;-52
2023/06/06 01:33:36;;;;;;;4.20;3.77;;;13.10;99.90;;;;;;5030745;28;20199;-54
2023/06/06 01:36:16;;;;;;;5.43;3.80;;;13.00;99.90;;;;;;5037548;28;20191;-53
2023/06/06 01:38:52;;;;;;;4.53;3.53;;;13.00;99.90;;;;;;5043735;28;20202;-53
2023/06/06 01:41:23;;;;;;;3.40;3.10;;;13.10;99.90;;;;;;5033071;28;20567;-49
2023/06/06 01:43:53;;;;;;;4.20;3.50;;;13.00;99.90;;;;;;5019099;28;20222;-55
2023/06/06 01:46:23;;;;;;;4.10;3.70;;;13.00;99.90;;;;;;5021125;28;20200;-53
2023/06/06 01:48:51;;;;;;;7.37;3.67;;;12.90;99.90;;;;;;5036596;28;20256;-50
2023/06/06 01:51:18;;;;;;;5.27;3.80;;;12.90;99.90;;;;;;5040695;28;20187;-48
2023/06/06 01:53:47;;;;;;;5.10;3.70;;;12.90;99.90;;;;;;5044614;28;20195;-50
2023/06/06 01:56:14;;;;;;;5.20;3.67;;;12.80;99.90;;;;;;5037745;28;20933;-51
2023/06/06 01:58:42;;;;;;;4.00;3.53;;;12.80;99.90;;;;;;5022091;28;20199;-51
2023/06/06 02:01:09;;;;;;;5.50;3.73;;;12.80;99.90;;;;;;5023222;28;20225;-52
2023/06/06 02:03:37;;;;;;;4.40;3.70;;;12.80;99.90;;;;;;5040371;28;20211;-55
2023/06/06 02:06:06;;;;;;;7.10;4.30;;;12.80;99.90;;;;;;5041542;28;20695;-52
2023/06/06 02:08:33;;;;;;;5.30;4.50;;;12.80;99.90;;;;;;5041624;28;20245;-54
2023/06/06 02:11:01;;;;;;;5.83;3.90;;;12.70;99.90;;;;;;5041636;28;20583;-54
2023/06/06 02:13:30;;;;;;;7.70;4.80;;;12.70;99.90;;;;;;5038803;28;20188;-53
2023/06/06 02:15:58;;;;;;;6.33;4.60;;;12.60;99.90;;;;;;5011231;28;20207;-52
2023/06/06 02:18:25;;;;;;;4.97;4.03;;;12.60;99.90;;;;;;5031922;28;20268;-49
2023/06/06 02:20:52;;;;;;;4.03;3.67;;;12.60;99.90;;;;;;5044075;28;20199;-50
2023/06/06 02:23:20;;;;;;;4.50;4.13;;;12.60;99.90;;;;;;5040280;28;20195;-49
2023/06/06 02:25:48;;;;;;;5.27;4.57;;;12.60;99.90;;;;;;5043803;28;20218;-55
2023/06/06 02:28:17;;;;;;;5.70;5.03;;;12.60;99.90;;;;;;5032536;28;20203;-50
2023/06/06 02:30:45;;;;;;;4.70;4.30;;;12.60;99.90;;;;;;5014414;28;20226;-53
2023/06/06 02:33:12;;;;;;;4.43;3.93;;;12.50;99.90;;;;;;5031710;28;20212;-51
2023/06/06 02:35:38;;;;;;;6.03;4.23;;;12.50;99.90;;;;;;5043612;28;20274;-52
2023/06/06 02:38:05;;;;;;;7.63;4.50;;;12.50;99.90;;;;;;5040810;28;20225;-51
2023/06/06 02:40:33;;;;;;;7.83;4.67;;;12.50;99.90;;;;;;5040136;28;20191;-51
2023/06/06 02:43:01;;;;;;;4.87;4.40;;;12.50;99.90;;;;;;5032773;28;20200;-54
2023/06/06 02:45:30;;;;;;;5.83;4.43;;;12.50;99.90;;;;;;5018134;28;20226;-55
2023/06/06 02:47:56;;;;;;;5.10;4.67;;;12.50;99.90;;;;;;5030596;28;20223;-54
2023/06/06 02:50:28;;;;;;;4.53;3.77;;;12.50;99.90;;;;;;5035042;28;20183;-51
2023/06/06 02:52:55;;;;;;;7.37;4.97;;;12.40;99.90;;;;;;5041915;28;20615;-51
2023/06/06 02:55:22;;;;;;;7.43;4.63;;;12.40;99.90;;;;;;5033602;28;20176;-52
2023/06/06 02:57:51;;;;;;;5.07;4.67;;;12.40;99.90;;;;;;5033597;28;20246;-55
2023/06/06 03:00:18;;;;;;;5.57;4.33;;;12.40;99.90;;;;;;5018923;28;21775;-50
2023/06/06 03:02:47;;;;;;;8.03;5.67;;;12.40;99.90;;;;;;5040185;28;20191;-54
2023/06/06 03:05:14;;;;;;;7.33;5.20;;;12.40;99.90;;;;;;5038393;28;20247;-55
2023/06/06 03:07:41;;;;;;;6.00;5.40;;;12.40;99.90;;;;;;5041950;28;20273;-53
2023/06/06 03:10:10;;;;;;;6.23;5.60;;;12.40;99.90;;;;;;5032742;28;20269;-54
2023/06/06 03:12:43;;;;;;;6.63;5.37;;;12.40;99.90;;;;;;5030822;28;20222;-54
2023/06/06 03:15:11;;;;;;;8.30;5.00;;;12.40;99.90;;;;;;5037900;28;20281;-54
2023/06/06 03:17:42;;;;;;;5.53;4.47;;;12.40;99.90;;;;;;5019728;28;20227;-55
2023/06/06 03:20:13;;;;;;;6.30;4.90;;;12.40;99.90;;;;;;5036577;28;20230;-52
2023/06/06 03:22:42;;;;;;;6.40;5.10;;;12.30;99.90;;;;;;5038201;28;20205;-51
2023/06/06 03:25:09;;;;;;;5.30;4.70;;;12.30;99.90;;;;;;5032363;28;20211;-54
2023/06/06 03:27:36;;;;;;;5.77;5.27;;;12.30;99.90;;;;;;5040070;28;20735;-52
2023/06/06 03:30:06;;;;;;;5.23;4.73;;;12.30;99.90;;;;;;5034712;28;20225;-53
2023/06/06 03:32:34;;;;;;;6.10;5.23;;;12.30;99.90;;;;;;5018121;28;20207;-50
2023/06/06 03:35:03;;;;;;;7.00;4.60;;;12.30;99.90;;;;;;5034165;28;20195;-52
2023/06/06 03:37:32;;;;;;;6.10;4.67;;;12.20;99.90;;;;;;5033428;28;20199;-51
2023/06/06 03:39:59;;;;;;;7.80;5.47;;;12.30;99.90;;;;;;5033941;28;20253;-50
2023/06/06 03:42:27;;;;;;;7.63;5.17;;;12.30;99.90;;;;;;5039234;28;20180;-55
2023/06/06 03:44:55;;;;;;;9.67;6.60;;;12.30;99.90;;;;;;5033780;28;20287;-51
2023/06/06 03:47:21;;;;;;;9.60;5.77;;;12.30;99.90;;;;;;5017858;28;20305;-54
2023/06/06 03:49:51;;;;;;;7.67;5.03;;;12.30;99.90;;;;;;5025213;28;20195;-51
2023/06/06 03:52:18;;;;;;;5.67;4.73;;;12.30;99.90;;;;;;5027383;28;20274;-52
2023/06/06 03:54:46;;;;;;;7.27;5.63;;;12.40;99.90;;;;;;5038142;28;20195;-52
2023/06/06 03:57:13;;;;;;;7.87;5.13;;;12.30;99.90;;;;;;5038774;28;20215;-53
2023/06/06 04:00:04;;;;;;;8.17;5.03;;;12.30;99.90;;;;;;5038816;28;20574;-52
2023/06/06 04:02:53;;;;;;;11.27;6.67;;;12.20;99.90;;;;;;5017836;28;20222;-51
2023/06/06 04:05:20;;;;;;;9.17;6.50;;;12.30;99.90;;;;;;5024458;28;20266;-53
2023/06/06 04:07:47;;;;;;;9.13;6.40;;;12.20;99.90;;;;;;5036604;28;20211;-50
2023/06/06 04:10:15;;;;;;;9.03;6.27;;;12.10;99.90;;;;;;5029942;28;20545;-49
2023/06/06 04:12:42;;;;;;;6.67;5.70;;;12.20;99.90;;;;;;5044622;28;20306;-49
2023/06/06 04:15:10;;;;;;;9.13;6.07;;;12.30;99.90;;;;;;5035521;28;20214;-52
2023/06/06 04:17:37;;;;;;;9.50;6.37;;;12.30;99.90;;;;;;5024990;28;20353;-51
2023/06/06 04:20:08;;;;;;;8.32;5.95;;;12.30;99.90;;;;;;5030994;28;20518;-52
2023/06/06 04:22:35;;;;;;;8.60;6.72;;;12.40;99.90;;;;;;5031409;28;20432;-52
2023/06/06 04:25:03;;;;;;;7.67;6.30;;;12.50;99.90;;;;;;5046962;28;20211;-55
2023/06/06 04:27:31;;;;;;;8.37;6.40;;;12.50;99.90;;;;;;5037488;28;20207;-53
2023/06/06 04:29:59;;;;;;;7.13;6.03;;;12.50;99.90;;;;;;5044992;28;20198;-52
2023/06/06 04:32:26;;;;;;;11.30;8.13;;;12.50;99.90;;;;;;5009170;28;20219;-51
2023/06/06 04:34:57;;;;;;;11.13;8.17;;;12.50;99.90;;;;;;5036564;28;20195;-51
2023/06/06 04:37:43;;;;;;;10.43;6.20;;;12.60;99.90;;;;;;5031895;28;20858;-54
2023/06/06 04:40:11;;;;;;;8.40;6.80;;;12.60;99.90;;;;;;5054391;28;20191;-53
2023/06/06 04:42:39;;;;;;;7.67;5.53;;;12.60;99.90;;;;;;5041589;28;20201;-54
2023/06/06 04:45:08;;;;;;;10.57;7.17;;;12.60;99.90;;;;;;5029099;28;20237;-55
2023/06/06 04:47:36;;;;;;;11.27;7.53;;;12.70;99.90;;;;;;5026327;28;20258;-53
2023/06/06 04:50:06;;;;;;;8.63;5.70;;;12.70;99.90;;;;;;5020037;28;20278;-53
2023/06/06 04:52:34;;;;;;;9.23;6.53;;;12.80;99.90;;;;;;5038781;28;20206;-49
2023/06/06 04:55:03;;;;;;;9.57;6.50;;;12.90;99.90;;;;;;5041742;28;20373;-50
2023/06/06 04:57:29;;;;;;;9.60;6.77;;;12.90;99.90;;;;;;5048002;28;20215;-53
2023/06/06 04:59:58;;;;;;;9.33;6.30;;;13.00;99.90;;;;;;5020497;28;20314;-54
2023/06/06 05:02:28;;;;;;;9.93;6.00;;;13.00;99.90;;;;;;5028255;28;20200;-53
2023/06/06 05:04:57;;;;;;;12.37;7.40;;;13.00;99.90;;;;;;5029885;28;20225;-54
2023/06/06 05:07:25;;;;;;;10.43;6.97;;;13.10;99.90;;;;;;5032717;28;20244;-55
2023/06/06 05:09:52;;;;;;;8.47;6.30;;;13.20;99.90;;;;;;5044216;28;20270;-51
2023/06/06 05:12:21;;;;;;;10.43;6.93;;;13.30;99.90;;;;;;5041247;28;20274;-51
2023/06/06 05:14:51;;;;;;;9.23;6.23;;;13.40;99.90;;;;;;5037311;28;20845;-51
2023/06/06 05:17:20;;;;;;;14.43;7.93;;;13.50;99.90;;;;;;5023728;28;20329;-51
2023/06/06 05:19:47;;;;;;;8.27;6.60;;;13.50;99.90;;;;;;5017565;28;20865;-53
2023/06/06 05:22:15;;;;;;;8.00;6.40;;;13.60;99.90;;;;;;5030665;28;20196;-51
2023/06/06 05:24:43;;;;;;;7.83;6.57;;;13.70;99.90;;;;;;5022913;28;20220;-53
2023/06/06 05:27:09;;;;;;;7.80;6.13;;;13.80;99.90;;;;;;5039478;28;20207;-51
2023/06/06 05:29:37;;;;;;;7.57;6.40;;;13.80;99.90;;;;;;5030332;28;20226;-50
2023/06/06 05:32:05;;;;;;;12.53;6.67;;;13.90;99.90;;;;;;5044793;28;20661;-53
2023/06/06 05:34:35;;;;;;;9.67;6.20;;;14.00;99.90;;;;;;5019869;28;20203;-51
2023/06/06 05:37:01;;;;;;;10.13;6.80;;;14.10;99.90;;;;;;5034404;28;20223;-53
2023/06/06 05:39:30;;;;;;;11.40;6.70;;;14.10;99.90;;;;;;5034638;28;20638;-49
2023/06/06 05:41:58;;;;;;;8.80;6.80;;;14.20;99.90;;;;;;5038664;28;21025;-52
2023/06/06 05:44:24;;;;;;;10.57;6.27;;;14.30;99.90;;;;;;5038971;28;20195;-50
2023/06/06 05:46:55;;;;;;;9.97;5.90;;;14.40;99.90;;;;;;5038094;28;20899;-51
2023/06/06 05:49:22;;;;;;;11.37;6.50;;;;;;;;;;5039054;28;20674;-51
2023/06/06 05:51:50;;;;;;;7.37;5.93;;;14.50;99.90;;;;;;5014351;28;20265;-54
2023/06/06 05:54:19;;;;;;;10.83;6.00;;;14.60;99.90;;;;;;5036799;28;20199;-53
2023/06/06 05:56:46;;;;;;;8.07;6.00;;;14.70;99.90;;;;;;5029286;28;20854;-50
2023/06/06 05:59:15;;;;;;;9.60;5.70;;;14.80;99.90;;;;;;5039356;28;20253;-48
2023/06/06 06:01:44;;;;;;;10.97;6.70;;;14.80;99.90;;;;;;5040165;28;20195;-49
2023/06/06 06:04:12;;;;;;;8.30;5.37;;;15.00;99.90;;;;;;5037323;28;20290;-51
2023/06/06 06:06:40;;;;;;;9.93;5.80;;;15.00;99.90;;;;;;5018505;28;20223;-50
2023/06/06 06:09:10;;;;;;;7.03;5.37;;;15.10;99.90;;;;;;5021821;28;20280;-48
2023/06/06 06:11:37;;;;;;;11.53;4.90;;;15.10;99.90;;;;;;5036575;28;20271;-47
2023/06/06 06:14:04;;;;;;;6.10;4.60;;;15.20;99.90;;;;;;5039338;28;20184;-49
2023/06/06 06:16:53;;;;;;;6.80;5.20;;;15.30;99.90;;;;;;5038349;28;20218;-51
2023/06/06 06:19:21;;;;;;;8.37;4.83;;;15.40;99.90;;;;;;5041991;28;20187;-48
2023/06/06 06:21:47;;;;;;;8.57;5.00;;;15.50;99.90;;;;;;5019783;28;20565;-53
2023/06/06 06:24:15;;;;;;;7.70;4.40;;;15.60;99.90;;;;;;5020468;28;20191;-51
2023/06/06 06:26:42;;;;;;;6.13;3.87;;;15.70;99.90;;;;;;5034408;28;20300;-52
2023/06/06 06:29:11;;;;;;;6.77;4.20;;;15.80;99.90;;;;;;5035480;28;20300;-48
2023/06/06 06:31:39;;;;;;;10.53;4.80;;;15.90;99.90;;;;;;5043499;28;20270;-50
2023/06/06 06:34:06;;;;;;;5.97;3.70;;;15.90;99.90;;;;;;5040169;28;20191;-52
2023/06/06 06:36:33;;;;;;;6.67;5.30;;;16.00;99.90;;;;;;5039714;28;20273;-52
2023/06/06 06:39:00;;;;;;;5.23;4.73;;;16.20;99.90;;;;;;5009006;28;20232;-49
2023/06/06 06:41:29;;;;;;;8.13;4.83;;;16.20;99.90;;;;;;5036169;28;20207;-51
2023/06/06 06:43:57;;;;;;;9.43;4.53;;;16.30;99.90;;;;;;5040519;28;20196;-54
2023/06/06 06:46:46;;;;;;;6.57;3.90;;;16.40;99.90;;;;;;5039576;28;20606;-53
2023/06/06 06:49:16;;;;;;;6.27;3.90;;;16.50;99.90;;;;;;5040877;28;20213;-52
2023/06/06 06:51:43;;;;;;;8.37;4.17;;;16.60;99.90;;;;;;5034779;28;20270;-50
2023/06/06 06:54:13;;;;;;;4.43;3.60;;;16.70;99.90;;;;;;5013848;28;20208;-51
2023/06/06 06:56:42;;;;;;;6.03;3.50;;;16.70;99.90;;;;;;5032348;28;20226;-53
2023/06/06 06:59:09;;;;;;;6.40;3.57;;;16.80;99.90;;;;;;5039616;28;20543;-52
2023/06/06 07:01:37;;;;;;;5.70;3.53;;;16.90;99.90;;;;;;5043701;28;20266;-51
2023/06/06 07:04:05;;;;;;;4.80;3.77;;;17.00;99.90;;;;;;5036177;28;20908;-50
2023/06/06 07:06:33;;;;;;;4.10;3.70;;;17.10;99.90;;;;;;5035224;28;20231;-51
2023/06/06 07:09:03;;;;;;;6.57;3.83;;;17.10;99.90;;;;;;5017090;28;20203;-48
2023/06/06 07:11:30;;;;;;;4.77;3.97;;;17.20;99.90;;;;;;5031926;28;20196;-47
2023/06/06 07:13:59;;;;;;;4.70;2.90;;;17.30;99.90;;;;;;5032460;28;20206;-49
2023/06/06 07:16:26;;;;;;;5.37;3.77;;;17.40;99.90;;;;;;5041223;28;20242;-48
2023/06/06 07:18:54;;;;;;;6.63;3.33;;;17.40;99.90;;;;;;5034015;28;20717;-50
2023/06/06 07:21:21;;;;;;;4.37;3.20;;;17.50;99.90;;;;;;5035854;28;20188;-47
2023/06/06 07:23:48;;;;;;;4.37;3.40;;;17.50;99.90;;;;;;5021603;28;20211;-50
2023/06/06 07:26:16;;;;;;;3.37;2.90;;;17.60;99.90;;;;;;5033517;28;20208;-50
2023/06/06 07:28:43;;;;;;;3.53;3.20;;;17.70;99.90;;;;;;5037110;28;20203;-54
2023/06/06 07:31:11;;;;;;;3.03;2.73;;;;;;;;;;5037705;28;20270;-52
2023/06/06 07:33:38;;;;;;;4.57;3.00;;;17.80;99.90;;;;;;5034916;28;20195;-51
2023/06/06 07:36:07;;;;;;;4.43;2.60;;;17.90;99.90;;;;;;5036482;28;20184;-54
2023/06/06 07:38:33;;;;;;;3.87;2.63;;;18.00;99.90;;;;;;5043150;28;20519;-53
2023/06/06 07:41:01;;;;;;;5.20;3.23;;;18.10;99.90;;;;;;5016026;28;20216;-54
2023/06/06 07:43:28;;;;;;;2.60;2.40;;;18.10;99.90;;;;;;5026784;28;20249;-55
2023/06/06 07:45:55;;;;;;;2.73;2.40;;;18.20;99.90;;;;;;5036342;28;20262;-52
2023/06/06 07:48:23;;;;;;;3.70;2.43;;;18.30;99.90;;;;;;5033776;28;20222;-55
2023/06/06 07:50:50;;;;;;;6.33;2.83;;;18.40;99.90;;;;;;5041805;28;20191;-55
2023/06/06 07:53:17;;;;;;;3.33;2.60;;;18.40;99.90;;;;;;5040863;28;20183;-52
2023/06/06 07:55:44;;;;;;;2.70;2.27;;;18.50;99.90;;;;;;5016132;28;20295;-52
2023/06/06 07:58:11;;;;;;;3.17;2.60;;;18.50;99.90;;;;;;5023132;28;20203;-51
2023/06/06 08:00:39;;;;;;;4.60;2.20;;;18.60;99.90;;;;;;5030251;28;20204;-51
2023/06/06 08:03:07;;;;;;;2.83;2.03;;;18.70;99.90;;;;;;5037262;28;20219;-48
2023/06/06 08:05:36;;;;;;;4.10;2.87;;;18.80;99.90;;;;;;5046529;28;20274;-49
2023/06/06 08:08:05;;;;;;;5.77;2.80;;;19.00;99.90;;;;;;5041628;28;20207;-48
2023/06/06 08:10:33;;;;;;;3.20;2.70;;;19.10;99.90;;;;;;5024413;28;20685;-49
2023/06/06 08:13:00;;;;;;;3.10;2.30;;;19.20;99.90;;;;;;5037652;28;20253;-54
2023/06/06 08:15:27;;;;;;;3.70;2.30;;;19.30;99.80;;;;;;5030621;28;20217;-54
2023/06/06 08:17:54;;;;;;;2.77;2.53;;;19.30;99.80;;;;;;5042116;28;20212;-53
2023/06/06 08:20:21;;;;;;;4.40;2.20;;;19.40;99.90;;;;;;5044917;28;20278;-50
2023/06/06 08:22:50;;;;;;;4.60;2.50;;;19.40;99.90;;;;;;5045275;28;20249;-53
2023/06/06 08:25:17;;;;;;;5.73;2.80;;;19.50;99.90;;;;;;5044536;28;20191;-52
2023/06/06 08:27:45;;;;;;;3.23;2.60;;;19.70;99.40;;;;;;5012037;28;20231;-56
2023/06/06 08:30:12;;;;;;;3.20;2.90;;;19.80;98.30;;;;;;5025051;28;20203;-48
2023/06/06 08:32:39;;;;;;;3.10;2.60;;;19.80;98.20;;;;;;5046496;28;20278;-50
2023/06/06 08:35:07;;;;;;;2.83;2.40;;;19.80;98.10;;;;;;5041900;28;20187;-50
2023/06/06 08:37:33;;;;;;;3.33;2.17;;;19.90;98.20;;;;;;5045826;28;20211;-48
2023/06/06 08:40:01;;;;;;;4.17;2.30;;;20.00;97.20;;;;;;5041700;28;20191;-51
2023/06/06 08:42:33;;;;;;;5.30;2.43;;;20.10;96.60;;;;;;5010526;28;20282;-49
2023/06/06 08:45:01;;;;;;;3.20;2.70;;;20.30;96.30;;;;;;5033047;28;20271;-48
2023/06/06 08:47:30;;;;;;;2.53;2.10;;;20.40;95.60;;;;;;5036669;28;20348;-52
2023/06/06 08:49:58;;;;;;;5.43;2.63;;;20.40;95.20;;;;;;5046194;28;20239;-52
2023/06/06 08:52:28;;;;;;;4.70;3.07;;;20.40;94.90;;;;;;5041844;28;20219;-48
2023/06/06 08:54:56;;;;;;;4.67;2.30;;;20.50;95.10;;;;;;5041517;28;20195;-51
2023/06/06 08:57:25;;;;;;;3.63;2.53;;;20.60;95.10;;;;;;5013588;28;20211;-50
2023/06/06 08:59:52;;;;;;;4.30;2.20;;;20.70;94.60;;;;;;5030541;28;20195;-52
2023/06/06 09:02:22;;;;;;;4.50;2.70;;;20.90;99.90;;;;;;5037144;28;20676;-51
2023/06/06 09:04:50;;;;;;;2.80;2.43;;;;;;;;;;5045272;28;20199;-50
2023/06/06 09:07:17;;;;;;;4.13;2.33;;;;;;;;;;5042378;28;20759;-50
2023/06/06 09:09:48;;;;;;;3.10;2.20;;;;;;;;;;5037455;28;20195;-53
2023/06/06 09:12:16;;;;;;;2.97;2.33;;;;;;;;;;5037645;28;20234;-54
2023/06/06 09:14:45;;;;;;;2.90;2.60;;;;;;;;;;5016098;28;20204;-50
2023/06/06 09:17:16;;;;;;;3.07;2.33;;;;;;;;;;5035603;28;20219;-50
2023/06/06 09:19:46;;;;;;;3.50;2.63;;;;;;;;;;5043767;28;20191;-51
2023/06/06 09:22:13;;;;;;;2.50;2.17;;;;;;;;;;5039328;28;20195;-51
2023/06/06 09:24:43;;;;;;;2.63;2.23;;;;;;;;;;5035712;28;20894;-51
2023/06/06 09:27:27;;;;;;;5.23;2.77;;;;;;;;;;5040337;28;20211;-51
2023/06/06 09:29:56;;;;;;;2.97;2.57;;;;;;;;;;5023691;28;20199;-53
2023/06/06 09:32:30;;;;;;;4.73;2.90;;;;;;;;;;5031879;28;20249;-53
2023/06/06 09:35:00;;;;;;;3.10;2.70;;;;;;;;;;5041993;28;20199;-51
2023/06/06 09:37:28;;;;;;;3.03;2.73;;;;;;;;;;5032611;28;20204;-52
2023/06/06 09:40:12;;;;;;;2.50;2.30;;;;;;;;;;5039545;28;20195;-52
2023/06/06 09:42:41;;;;;;;3.20;2.47;;;;;;;;;;5042729;28;20278;-51
2023/06/06 09:45:14;;;;;;;3.17;2.67;;;;;;;;;;5021044;28;20211;-53
2023/06/06 09:47:42;;;;;;;4.33;3.17;;;;;;;;;;5034139;28;20246;-52
2023/06/06 09:50:10;;;;;;;3.00;2.70;;;;;;;;;;5040482;28;20719;-51
2023/06/06 09:52:37;;;;;;;4.80;2.77;;;;;;;;;;5035119;28;20192;-48
2023/06/06 09:55:09;;;;;;;2.77;2.57;;;22.10;89.60;;;;;;5043067;28;20202;-53
2023/06/06 09:57:38;;;;;;;3.10;2.37;;;22.10;88.90;;;;;;5040476;28;20211;-53
2023/06/06 10:00:09;;;;;;;4.33;2.40;;;22.20;88.30;;;;;;5021641;28;20203;-53
2023/06/06 10:02:43;;;;;;;3.20;2.70;;;22.20;86.40;;;;;;5029774;28;20831;-50
2023/06/06 10:05:14;;;;;;;3.30;2.17;;;22.20;86.30;;;;;;5030467;28;20225;-53
2023/06/06 10:07:44;;;;;;;3.47;2.70;;;22.20;86.20;;;;;;5037357;28;20965;-51
2023/06/06 10:10:12;;;;;;;2.53;2.33;;;22.30;85.00;;;;;;5042883;28;20676;-52
2023/06/06 10:12:40;;;;;;;4.90;2.70;;;22.40;83.90;;;;;;5041982;28;20180;-52
2023/06/06 10:15:10;;;;;;;5.60;2.80;;;22.40;83.00;;;;;;5020122;28;20693;-53
2023/06/06 10:17:40;;;;;;;4.90;2.10;;;22.40;82.50;;;;;;5029593;28;20223;-54
2023/06/06 10:20:11;;;;;;;3.47;2.10;;;22.50;83.80;;;;;;5030486;28;20210;-53
2023/06/06 10:22:40;;;;;;;4.87;2.80;;;22.50;84.20;;;;;;5040030;28;20199;-53
2023/06/06 10:25:09;;;;;;;3.33;2.10;;;22.70;84.00;;;;;;5043356;28;20199;-52
2023/06/06 10:27:45;;;;;;;5.15;2.33;;;22.90;99.90;;;;;;5040950;28;20247;-53
2023/06/06 10:30:29;;;;;;;3.67;2.38;;;23.10;99.90;;;;;;5014864;28;20200;-54
2023/06/06 10:33:07;;;;;;;5.65;2.63;;;23.20;99.90;;;;;;5028110;28;20665;-47
2023/06/06 10:35:37;;;;;;;2.78;1.85;;;23.00;99.90;;;;;;5031751;28;20195;-49
2023/06/06 10:38:06;;;;;;;4.32;2.35;;;23.00;99.90;;;;;;5043367;28;20265;-53
2023/06/06 10:40:48;;;;;;;2.78;2.08;;;23.00;99.90;;;;;;5040842;28;20184;-50
2023/06/06 10:43:19;;;;;;;4.97;2.33;;;23.00;99.90;;;;;;5035089;28;20187;-50
2023/06/06 10:45:46;;;;;;;4.70;2.58;;;23.20;99.90;;;;;;5015680;28;20236;-50
2023/06/06 10:48:14;;;;;;;3.65;2.38;;;23.30;99.90;;;;;;5022953;28;20234;-52
2023/06/06 10:50:55;;;;;;;2.70;2.30;;;23.30;99.90;;;;;;5035133;28;21048;-52
2023/06/06 10:53:21;;;;;;;2.58;2.38;;;23.30;99.90;;;;;;5040084;28;20260;-53
2023/06/06 10:55:48;;;;;;;3.55;2.50;;;23.20;99.90;;;;;;5043140;28;20207;-49
2023/06/06 10:58:29;;;;;;;3.63;2.70;;;23.10;99.90;;;;;;5040122;28;20214;-53
2023/06/06 11:01:01;;;;;;;4.82;2.35;;;23.10;99.90;;;;;;5035566;28;20278;-51
2023/06/06 11:03:34;;;;;;;3.53;2.00;;;23.20;99.90;;;;;;5006415;28;20216;-49
2023/06/06 11:06:08;;;;;;;3.25;2.95;;;23.30;99.90;;;;;;5036961;28;20684;-53
2023/06/06 11:08:38;;;;;;;3.03;2.72;;;;;;;;;;5036910;28;20292;-49
2023/06/06 11:11:17;;;;;;;3.40;2.47;;;;;;;;;;5043149;28;20202;-51
2023/06/06 11:13:51;;;;;;;4.18;2.53;;;;;;;;;;5034355;28;20902;-48
2023/06/06 11:16:18;;;;;;;2.80;2.40;;;;;;;;;;5016775;28;20215;-52
2023/06/06 11:18:46;;;;;;;2.88;2.33;;;;;;;;;;5032351;28;20210;-50
2023/06/06 11:21:19;;;;;;;2.45;2.20;;;;;;;;;;5032141;28;20208;-49
2023/06/06 11:23:47;;;;;;;3.53;2.20;;;;;;;;;;5040428;28;20203;-51
2023/06/06 11:26:16;;;;;;;4.55;2.42;;;;;;;;;;5040305;28;20191;-51
2023/06/06 11:28:43;;;;;;;4.78;2.58;;;;;;;;;;5032867;28;20223;-49
2023/06/06 11:31:11;;;;;;;3.92;2.42;;;;;;;;;;5038348;28;20195;-49
2023/06/06 11:33:41;;;;;;;3.50;2.03;;;;;;;;;;5019457;28;20277;-49
2023/06/06 11:36:10;;;;;;;2.17;1.77;;;;;;;;;;5039076;28;20606;-51
2023/06/06 11:38:44;;;;;;;3.08;2.35;;;;;;;;;;5040095;28;20909;-46
2023/06/06 11:41:15;;;;;;;3.92;2.55;;;;;;;;;;5041292;28;20700;-51
2023/06/06 11:43:51;;;;;;;3.83;1.92;;;;;;;;;;5037490;28;20769;-49
2023/06/06 11:46:20;;;;;;;3.88;2.17;;;;;;;;;;5037609;28;20593;-50
2023/06/06 11:48:55;;;;;;;3.70;2.45;;;23.80;99.90;;;;;;5026375;28;20694;-47
2023/06/06 11:51:22;;;;;;;3.42;2.10;;;23.90;71.10;;;;;;5029327;28;20197;-51
2023/06/06 11:53:51;;;;;;;2.75;2.10;;;24.00;71.30;;;;;;5040305;28;20581;-52
2023/06/06 11:56:19;;;;;;;3.70;2.10;;;24.10;70.60;;;;;;5028105;28;20278;-52
2023/06/06 11:58:46;;;;;;;2.65;2.10;;;24.10;70.20;;;;;;5042070;28;20183;-47
2023/06/06 12:01:15;;;;;;;2.45;2.17;;;24.10;70.40;;;;;;5044561;28;20194;-53
2023/06/06 12:03:42;;;;;;;2.90;2.13;;;24.20;70.60;;;;;;5022630;28;20222;-49
2023/06/06 12:06:09;;;;;;;3.60;2.30;;;24.20;70.10;;;;;;5034232;28;20199;-52
2023/06/06 12:08:37;;;;;;;2.92;2.22;;;24.30;69.50;;;;;;5029475;28;20972;-49
2023/06/06 12:11:29;;;;;;;5.15;2.45;;;24.20;69.20;;;;;;5038737;28;20199;-49
2023/06/06 12:13:57;;;;;;;3.08;2.00;;;24.10;69.50;;;;;;5040142;28;20583;-48
2023/06/06 12:16:26;;;;;;;2.50;2.30;;;23.90;71.40;;;;;;5040670;28;20302;-51
2023/06/06 12:18:54;;;;;;;5.05;2.42;;;23.90;70.10;;;;;;5026251;28;20195;-47
2023/06/06 12:21:21;;;;;;;3.83;2.00;;;23.90;69.80;;;;;;5035191;28;20199;-52
2023/06/06 12:23:49;;;;;;;5.70;2.28;;;23.80;68.20;;;;;;5029222;28;20754;-47
2023/06/06 12:26:18;;;;;;;2.55;2.05;;;23.80;68.50;;;;;;5039831;28;20187;-49
2023/06/06 12:28:57;;;;;;;3.55;1.80;;;23.80;69.00;;;;;;5044823;28;20713;-51
2023/06/06 12:31:25;;;;;;;2.50;2.22;;;23.80;70.40;;;;;;5042334;28;20187;-51
2023/06/06 12:33:54;;;;;;;2.08;1.83;;;23.80;70.60;;;;;;5046205;28;20192;-49
2023/06/06 12:36:24;;;;;;;2.30;2.05;;;23.80;71.80;;;;;;5012584;28;20290;-50
2023/06/06 12:38:58;;;;;;;3.88;2.40;;;23.90;72.00;;;;;;5027372;28;20210;-51
2023/06/06 12:41:36;;;;;;;2.55;2.35;;;23.90;70.80;;;;;;5042509;28;20820;-53
2023/06/06 12:44:06;;;;;;;3.13;2.35;;;24.00;70.50;;;;;;5045549;28;20211;-53
2023/06/06 12:46:34;;;;;;;3.63;2.35;;;24.10;70.70;;;;;;5042761;28;20229;-51
2023/06/06 12:49:01;;;;;;;2.30;2.10;;;24.50;68.90;;;;;;5043948;28;20246;-51
2023/06/06 12:51:28;;;;;;;2.63;1.98;;;;;;;;;;5001369;28;20203;-50
2023/06/06 12:53:56;;;;;;;3.00;2.38;;;;;;;;;;5026906;28;20287;-47
2023/06/06 12:56:24;;;;;;;3.97;2.38;;;25.80;66.30;;;;;;5041435;28;20877;-48
2023/06/06 12:58:51;;;;;;;2.40;2.20;;;26.20;65.00;;;;;;5043200;28;20235;-49
2023/06/06 13:01:19;;;;;;;4.78;2.53;;;26.60;64.00;;;;;;5042955;28;20534;-47
2023/06/06 13:03:46;;;;;;;5.22;2.25;;;26.40;63.80;;;;;;5042046;28;20198;-49
2023/06/06 13:06:13;;;;;;;3.15;2.33;;;26.20;64.20;;;;;;5016184;28;20223;-53
2023/06/06 13:08:40;;;;;;;3.65;2.60;;;25.90;64.40;;;;;;5038751;28;20222;-47
2023/06/06 13:11:06;;;;;;;3.60;2.03;;;25.60;66.30;;;;;;5024951;28;20200;-52